Time,TemperatureF,DewpointF,PressureIn,WindDirection,WindDirectionDegrees,WindSpeedMPH,WindSpeedGustMPH,Humidity,HourlyPrecipIn,Conditions,Clouds,dailyrainin,SoftwareType,DateUTC
2013-05-08 00:13:00,56.8,56.2,29.73,SE,135,0.0,-999.0,98,-99.99,,,0.00,Acu-Link.com,2013-05-08 04:13:00,
2013-05-08 00:28:00,56.8,56.2,29.73,SE,135,0.0,-999.0,98,-99.99,,,0.00,Acu-Link.com,2013-05-08 04:28:00,
2013-05-08 00:43:00,56.7,56.1,29.74,WNW,292,0.0,-999.0,98,-99.99,,,0.00,Acu-Link.com,2013-05-08 04:43:00,
2013-05-08 00:58:00,56.7,56.1,29.74,SE,135,0.0,-999.0,98,-99.99,,,0.00,Acu-Link.com,2013-05-08 04:58:00,
2013-05-08 01:14:00,56.7,56.1,29.73,SE,135,0.0,-999.0,98,-99.99,,,0.00,Acu-Link.com,2013-05-08 05:14:00,
2013-05-08 01:29:00,56.7,56.1,29.73,West,270,0.0,-999.0,98,-99.99,,,0.00,Acu-Link.com,2013-05-08 05:29:00,
2013-05-08 01:44:00,56.7,56.1,29.73,NW,315,0.0,-999.0,98,-99.99,,,0.00,Acu-Link.com,2013-05-08 05:44:00,
2013-05-08 02:00:00,56.7,56.1,29.72,North,0,0.0,-999.0,98,-99.99,,,0.00,Acu-Link.com,2013-05-08 06:00:00,
2013-05-08 02:15:00,56.7,56.1,29.72,NNW,337,0.0,-999.0,98,-99.99,,,0.00,Acu-Link.com,2013-05-08 06:15:00,
2013-05-08 02:30:00,56.5,55.9,29.72,NW,315,0.0,-999.0,98,-99.99,,,0.00,Acu-Link.com,2013-05-08 06:30:00,
2013-05-08 02:46:00,56.3,55.7,29.71,West,270,0.0,-999.0,98,-99.99,,,0.00,Acu-Link.com,2013-05-08 06:46:00,
2013-05-08 03:01:00,56.7,56.1,29.71,West,270,1.1,-999.0,98,-99.99,,,0.00,Acu-Link.com,2013-05-08 07:01:00,
2013-05-08 03:16:00,56.8,56.2,29.71,SSE,157,1.7,-999.0,98,-99.99,,,0.00,Acu-Link.com,2013-05-08 07:16:00,
2013-05-08 03:32:00,57.2,56.6,29.71,NE,45,1.1,-999.0,98,-99.99,,,0.00,Acu-Link.com,2013-05-08 07:32:00,
2013-05-08 03:47:00,57.2,56.6,29.71,South,180,4.7,-999.0,98,-99.99,,,0.00,Acu-Link.com,2013-05-08 07:47:00,
2013-05-08 04:03:00,57.2,56.6,29.71,SSE,157,1.7,-999.0,98,-99.99,,,0.00,Acu-Link.com,2013-05-08 08:03:00,
2013-05-08 04:18:00,57.2,56.6,29.71,ESE,112,0.0,-999.0,98,-99.99,,,0.00,Acu-Link.com,2013-05-08 08:18:00,
2013-05-08 04:33:00,57.2,56.6,29.72,SSE,157,2.7,-999.0,98,-99.99,,,0.00,Acu-Link.com,2013-05-08 08:33:00,
2013-05-08 04:48:00,57.0,56.4,29.71,South,180,2.2,-999.0,98,-99.99,,,0.00,Acu-Link.com,2013-05-08 08:48:00,
2013-05-08 05:04:00,56.8,56.2,29.72,West,270,0.0,-999.0,98,-99.99,,,0.00,Acu-Link.com,2013-05-08 09:04:00,
2013-05-08 05:19:00,56.8,56.2,29.72,SSW,202,1.7,-999.0,98,-99.99,,,0.00,Acu-Link.com,2013-05-08 09:19:00,
2013-05-08 05:34:00,56.7,56.1,29.72,SSE,157,1.7,-999.0,98,-99.99,,,0.00,Acu-Link.com,2013-05-08 09:34:00,
2013-05-08 05:49:00,56.7,56.1,29.72,SSW,202,0.0,-999.0,98,-99.99,,,0.00,Acu-Link.com,2013-05-08 09:49:00,
2013-05-08 06:04:00,56.7,56.1,29.73,SSW,202,0.0,-999.0,98,-99.99,,,0.00,Acu-Link.com,2013-05-08 10:04:00,
2013-05-08 06:20:00,56.7,56.1,29.73,SW,225,0.0,-999.0,98,-99.99,,,0.00,Acu-Link.com,2013-05-08 10:20:00,
2013-05-08 06:35:00,56.7,56.1,29.73,West,270,0.0,-999.0,98,-99.99,,,0.00,Acu-Link.com,2013-05-08 10:35:00,
2013-05-08 06:50:00,56.7,56.1,29.74,South,180,0.0,-999.0,98,-99.99,,,0.00,Acu-Link.com,2013-05-08 10:50:00,
2013-05-08 07:06:00,56.7,56.1,29.75,NW,315,0.0,-999.0,98,-99.99,,,0.00,Acu-Link.com,2013-05-08 11:06:00,
2013-05-08 07:21:00,56.8,56.2,29.76,WNW,292,0.0,-999.0,98,-99.99,,,0.00,Acu-Link.com,2013-05-08 11:21:00,
2013-05-08 07:36:00,57.0,56.4,29.77,South,180,0.0,-999.0,98,-99.99,,,0.00,Acu-Link.com,2013-05-08 11:36:00,
2013-05-08 07:52:00,57.4,56.8,29.76,SW,225,2.2,-999.0,98,-99.99,,,0.00,Acu-Link.com,2013-05-08 11:52:00,
2013-05-08 08:07:00,57.9,57.3,29.77,West,270,1.7,-999.0,98,-99.99,,,0.00,Acu-Link.com,2013-05-08 12:07:00,
2013-05-08 08:22:00,58.3,57.7,29.78,ESE,112,2.2,-999.0,98,-99.99,,,0.00,Acu-Link.com,2013-05-08 12:22:00,
2013-05-08 08:37:00,58.6,58.0,29.78,North,0,5.8,-999.0,98,-99.99,,,0.00,Acu-Link.com,2013-05-08 12:37:00,
2013-05-08 08:53:00,59.4,58.8,29.78,SSW,202,1.7,-999.0,98,-99.99,,,0.00,Acu-Link.com,2013-05-08 12:53:00,
2013-05-08 09:08:00,60.3,58.9,29.78,NW,315,0.0,-999.0,95,-99.99,,,0.00,Acu-Link.com,2013-05-08 13:08:00,
2013-05-08 09:23:00,60.3,57.0,29.78,South,180,2.2,-999.0,89,-99.99,,,0.00,Acu-Link.com,2013-05-08 13:23:00,
2013-05-08 09:38:00,60.3,57.4,29.79,SE,135,3.2,-999.0,90,-99.99,,,0.00,Acu-Link.com,2013-05-08 13:38:00,
2013-05-08 09:54:00,60.6,57.3,29.79,SW,225,2.2,-999.0,89,-99.99,,,0.00,Acu-Link.com,2013-05-08 13:54:00,
2013-05-08 10:09:00,61.0,57.4,29.79,SW,225,2.7,-999.0,88,-99.99,,,0.00,Acu-Link.com,2013-05-08 14:09:00,
2013-05-08 10:24:00,61.3,58.0,29.80,South,180,3.2,-999.0,89,-99.99,,,0.00,Acu-Link.com,2013-05-08 14:24:00,
2013-05-08 10:40:00,64.0,59.7,29.81,SSE,157,2.7,-999.0,86,-99.99,,,0.00,Acu-Link.com,2013-05-08 14:40:00,
2013-05-08 10:55:00,63.9,59.0,29.79,ESE,112,1.1,-999.0,84,-99.99,,,0.00,Acu-Link.com,2013-05-08 14:55:00,
2013-05-08 11:11:00,63.7,58.4,29.80,ESE,112,2.7,-999.0,83,-99.99,,,0.00,Acu-Link.com,2013-05-08 15:11:00,
2013-05-08 11:26:00,64.6,59.7,29.80,NNW,337,4.7,-999.0,84,-99.99,,,0.00,Acu-Link.com,2013-05-08 15:26:00,
2013-05-08 11:41:00,65.1,59.1,29.80,SSE,157,3.7,-999.0,81,-99.99,,,0.00,Acu-Link.com,2013-05-08 15:41:00,
2013-05-08 11:57:00,65.3,59.3,29.81,West,270,5.8,-999.0,81,-99.99,,,0.00,Acu-Link.com,2013-05-08 15:57:00,
2013-05-08 12:12:00,66.7,60.0,29.80,West,270,3.2,-999.0,79,-99.99,,,0.00,Acu-Link.com,2013-05-08 16:12:00,
2013-05-08 12:27:00,68.9,61.0,29.80,SSE,157,4.7,-999.0,76,-99.99,,,0.00,Acu-Link.com,2013-05-08 16:27:00,
2013-05-08 12:43:00,71.6,61.3,29.80,West,270,2.7,-999.0,70,-99.99,,,0.00,Acu-Link.com,2013-05-08 16:43:00,
2013-05-08 12:58:00,69.1,60.5,29.79,SSE,157,2.2,-999.0,74,-99.99,,,0.00,Acu-Link.com,2013-05-08 16:58:00,
2013-05-08 13:13:00,72.9,60.4,29.78,South,180,2.7,-999.0,65,-99.99,,,0.00,Acu-Link.com,2013-05-08 17:13:00,
2013-05-08 13:28:00,73.9,61.4,29.78,South,180,4.7,-999.0,65,-99.99,,,0.00,Acu-Link.com,2013-05-08 17:28:00,
2013-05-08 13:44:00,73.9,60.0,29.77,SSW,202,3.2,-999.0,62,-99.99,,,0.00,Acu-Link.com,2013-05-08 17:44:00,
2013-05-08 13:59:00,71.6,60.0,29.77,South,180,1.7,-999.0,67,-99.99,,,0.00,Acu-Link.com,2013-05-08 17:59:00,
2013-05-08 14:14:00,70.0,60.2,29.77,SSW,202,4.2,-999.0,71,-99.99,,,0.00,Acu-Link.com,2013-05-08 18:14:00,
2013-05-08 14:29:00,73.8,62.1,29.78,South,180,2.2,-999.0,67,-99.99,,,0.00,Acu-Link.com,2013-05-08 18:29:00,
2013-05-08 14:44:00,72.1,60.1,29.77,South,180,5.8,-999.0,66,-99.99,,,0.00,Acu-Link.com,2013-05-08 18:44:00,
2013-05-08 14:59:00,71.1,60.4,29.77,SSW,202,2.7,-999.0,69,-99.99,,,0.00,Acu-Link.com,2013-05-08 18:59:00,
2013-05-08 15:14:00,74.7,61.7,29.77,South,180,4.7,-999.0,64,-99.99,,,0.00,Acu-Link.com,2013-05-08 19:14:00,
2013-05-08 15:30:00,71.1,60.4,29.77,SSE,157,2.7,-999.0,69,-99.99,,,0.00,Acu-Link.com,2013-05-08 19:30:00,
2013-05-08 15:45:00,69.8,63.7,29.77,North,0,0.0,-999.0,81,-99.99,,,0.00,Acu-Link.com,2013-05-08 19:45:00,
2013-05-08 16:00:00,70.7,64.6,29.76,South,180,1.1,-999.0,81,-99.99,,,0.01,Acu-Link.com,2013-05-08 20:00:00,
2013-05-08 16:16:00,69.6,62.4,29.76,SSE,157,2.2,-999.0,78,-99.99,,,0.01,Acu-Link.com,2013-05-08 20:16:00,
2013-05-08 16:31:00,71.1,62.8,29.76,SE,135,2.2,-999.0,75,-99.99,,,0.01,Acu-Link.com,2013-05-08 20:31:00,
2013-05-08 16:46:00,76.8,62.3,29.75,West,270,3.7,-999.0,61,-99.99,,,0.01,Acu-Link.com,2013-05-08 20:46:00,
2013-05-08 17:02:00,77.9,61.4,29.75,WSW,247,3.2,-999.0,57,-99.99,,,0.01,Acu-Link.com,2013-05-08 21:02:00,
2013-05-08 17:17:00,79.3,59.0,29.75,North,0,1.1,-999.0,50,-99.99,,,0.01,Acu-Link.com,2013-05-08 21:17:00,
2013-05-08 17:32:00,80.4,58.9,29.74,North,0,1.7,-999.0,48,-99.99,,,0.01,Acu-Link.com,2013-05-08 21:32:00,
2013-05-08 17:47:00,78.6,56.7,29.75,NNE,22,2.7,-999.0,47,-99.99,,,0.01,Acu-Link.com,2013-05-08 21:47:00,
2013-05-08 18:03:00,78.1,57.4,29.75,NE,45,1.1,-999.0,49,-99.99,,,0.01,Acu-Link.com,2013-05-08 22:03:00,
2013-05-08 18:18:00,75.9,58.0,29.74,North,0,0.0,-999.0,54,-99.99,,,0.01,Acu-Link.com,2013-05-08 22:18:00,
2013-05-08 18:33:00,75.2,58.9,29.74,WSW,247,0.0,-999.0,57,-99.99,,,0.01,Acu-Link.com,2013-05-08 22:33:00,
2013-05-08 18:48:00,73.4,59.1,29.74,South,180,1.7,-999.0,61,-99.99,,,0.01,Acu-Link.com,2013-05-08 22:48:00,
2013-05-08 19:04:00,72.7,59.4,29.74,SSW,202,1.7,-999.0,63,-99.99,,,0.01,Acu-Link.com,2013-05-08 23:04:00,
2013-05-08 19:19:00,72.5,57.8,29.74,South,180,1.7,-999.0,60,-99.99,,,0.01,Acu-Link.com,2013-05-08 23:19:00,
2013-05-08 19:34:00,71.6,60.0,29.76,South,180,1.7,-999.0,67,-99.99,,,0.01,Acu-Link.com,2013-05-08 23:34:00,
2013-05-08 19:49:00,70.0,59.4,29.76,South,180,1.7,-999.0,69,-99.99,,,0.01,Acu-Link.com,2013-05-08 23:49:00,
2013-05-08 20:05:00,69.4,59.6,29.76,SSW,202,0.0,-999.0,71,-99.99,,,0.01,Acu-Link.com,2013-05-09 00:05:00,
2013-05-08 20:20:00,67.8,59.2,29.77,SSE,157,0.0,-999.0,74,-99.99,,,0.01,Acu-Link.com,2013-05-09 00:20:00,
2013-05-08 20:35:00,67.1,60.4,29.77,WNW,292,0.0,-999.0,79,-99.99,,,0.01,Acu-Link.com,2013-05-09 00:35:00,
2013-05-08 20:50:00,66.4,59.7,29.77,West,270,1.1,-999.0,79,-99.99,,,0.01,Acu-Link.com,2013-05-09 00:50:00,
2013-05-08 21:06:00,65.8,61.2,29.78,SW,225,0.0,-999.0,85,-99.99,,,0.01,Acu-Link.com,2013-05-09 01:06:00,
2013-05-08 21:21:00,64.8,61.2,29.79,NE,45,2.2,-999.0,88,-99.99,,,0.01,Acu-Link.com,2013-05-09 01:21:00,
2013-05-08 21:36:00,63.1,62.5,29.82,ENE,67,1.7,-999.0,98,-99.99,,,0.23,Acu-Link.com,2013-05-09 01:36:00,
2013-05-08 21:52:00,62.6,62.0,29.82,ESE,112,1.1,-999.0,98,-99.99,,,0.26,Acu-Link.com,2013-05-09 01:52:00,
2013-05-08 22:07:00,62.2,61.6,29.83,SSE,157,0.0,-999.0,98,-99.99,,,0.26,Acu-Link.com,2013-05-09 02:07:00,
2013-05-08 22:22:00,61.9,61.3,29.83,NE,45,0.0,-999.0,98,-99.99,,,0.26,Acu-Link.com,2013-05-09 02:22:00,
2013-05-08 22:38:00,61.7,61.1,29.83,East,90,0.0,-999.0,98,-99.99,,,0.26,Acu-Link.com,2013-05-09 02:38:00,
2013-05-08 22:53:00,61.2,60.6,29.83,East,90,0.0,-999.0,98,-99.99,,,0.26,Acu-Link.com,2013-05-09 02:53:00,
2013-05-08 23:08:00,60.6,60.0,29.83,NW,315,0.0,-999.0,98,-99.99,,,0.26,Acu-Link.com,2013-05-09 03:08:00,
2013-05-08 23:23:00,60.1,59.5,29.83,WNW,292,1.1,-999.0,98,-99.99,,,0.26,Acu-Link.com,2013-05-09 03:23:00,
2013-05-08 23:39:00,59.5,58.9,29.83,WNW,292,0.0,-999.0,98,-99.99,,,0.26,Acu-Link.com,2013-05-09 03:39:00,
2013-05-08 23:54:00,59.0,58.4,29.83,WNW,292,0.0,-999.0,98,-99.99,,,0.26,Acu-Link.com,2013-05-09 03:54:00,